Latest Weather Observations for Yarrawonga

IDV60801

Issued at 11:32 am EST Sunday 31 July 2016 (issued every 30 minutes, with the page automatically refreshed every 10 minutes)

About weather observations | Map of weather stations | Latest weather observations for VIC | Other Formats
Station Details ID: 081124 Name: YARRAWONGA Lat: -36.03 Lon: 146.03 Height: 128.9 m
Data from the previous 72 hours. | See also: Recent months at Yarrawonga
Date/Time
EST
Temp
°C
App
Temp
°C
Dew
Point
°C
Rel
Hum
%
Delta-T
°C
Wind Press
QNH
hPa
Press
MSL
hPa
Rain since
9am
mm
Dir  Spd
km/h
Gust
km/h
Spd
kts
Gust
kts
31/11:30am 13.3 12.2 10.1 81 1.7 NNE 6 13 3 7 1017.8 1018.0 0.0
31/11:00am 12.4 11.3 10.1 86 1.2 NNE 6 11 3 6 1018.1 1018.3 0.0
31/10:30am 11.9 9.5 10.0 88 1.0 NNE 13 17 7 9 1018.2 1018.4 0.0
31/10:00am 11.5 8.9 9.4 87 1.1 NE 13 17 7 9 1018.4 1018.6 0.0
31/09:30am 11.0 9.2 9.3 89 0.9 NE 9 13 5 7 1018.5 1018.7 0.0
31/09:00am 10.6 8.7 9.2 91 0.7 NE 9 13 5 7 1018.4 1018.6 2.6
31/08:30am 9.5 7.9 8.7 95 0.4 NE 7 11 4 6 1018.3 1018.5 2.6
31/08:00am 9.1 7.4 8.5 96 0.3 NE 7 11 4 6 1018.0 1018.2 2.4
31/07:30am 8.9 7.2 8.3 96 0.3 NE 7 11 4 6 1017.8 1018.0 2.4
31/07:00am 8.9 7.1 8.1 95 0.4 NE 7 11 4 6 1017.7 1017.9 2.4
31/06:30am 8.9 6.8 8.1 95 0.4 NNE 9 15 5 8 1017.5 1017.7 2.2
31/06:00am 8.9 6.8 8.3 96 0.3 NE 9 15 5 8 1017.0 1017.2 2.0
31/05:30am 8.7 7.0 8.3 97 0.2 NE 7 13 4 7 1017.2 1017.4 1.8
31/05:00am 8.7 6.6 8.1 96 0.3 NE 9 11 5 6 1017.2 1017.4 1.6
31/04:30am 8.8 6.3 8.2 96 0.3 NE 11 15 6 8 1017.2 1017.4 1.4
31/04:00am 8.9 6.4 8.1 95 0.4 NE 11 15 6 8 1017.1 1017.3 1.2
31/03:30am 8.8 6.3 8.2 96 0.3 NE 11 17 6 9 1017.2 1017.4 1.0
31/03:00am 8.8 6.3 8.2 96 0.3 NE 11 17 6 9 1017.5 1017.7 0.6
31/02:30am 8.9 6.4 8.3 96 0.3 NE 11 17 6 9 1018.0 1018.2 0.4
31/02:00am 8.9 6.0 8.1 95 0.4 NE 13 19 7 10 1018.5 1018.7 0.2
31/01:30am 9.3 6.8 8.1 92 0.6 NE 11 15 6 8 1019.0 1019.3 0.0
31/01:00am 9.3 7.2 8.1 92 0.6 NE 9 13 5 7 1019.2 1019.5 0.0
31/12:30am 9.2 7.0 8.0 92 0.6 ENE 9 13 5 7 1019.5 1019.8 0.0
31/12:00am 9.4 7.6 8.0 91 0.7 ENE 7 13 4 7 1020.1 1020.4 0.0
 
Date/Time
EST
Temp
°C
App
Temp
°C
Dew
Point
°C
Rel
Hum
%
Delta-T
°C
Wind Press
QNH
hPa
Press
MSL
hPa
Rain since
9am
mm
Dir  Spd
km/h
Gust
km/h
Spd
kts
Gust
kts
30/11:30pm 9.5 7.4 8.1 91 0.7 NE 9 13 5 7 1019.9 1020.2 0.0
30/11:00pm 9.6 7.8 8.0 90 0.8 NE 7 13 4 7 1020.0 1020.3 0.0
30/10:30pm 9.7 7.1 7.8 88 0.9 NE 11 15 6 8 1019.8 1020.1 0.0
30/10:00pm 9.6 6.6 7.9 89 0.8 NE 13 17 7 9 1019.1 1019.4 0.0
30/09:30pm 9.7 7.2 8.0 89 0.8 NE 11 17 6 9 1019.4 1019.7 0.0
30/09:00pm 9.9 8.1 7.8 87 1.0 NE 7 15 4 8 1019.9 1020.2 0.0
30/08:30pm 9.9 7.7 7.8 87 1.0 NE 9 15 5 8 1019.7 1020.0 0.0
30/08:00pm 9.9 7.3 7.8 87 1.0 NE 11 19 6 10 1019.5 1019.8 0.0
30/07:30pm 9.9 7.0 8.0 88 0.9 NNE 13 19 7 10 1019.4 1019.7 0.0
30/07:00pm 10.0 7.1 8.1 88 0.9 NNE 13 20 7 11 1019.5 1019.8 0.0
30/06:30pm 10.1 6.8 8.0 87 1.0 NE 15 22 8 12 1019.1 1019.4 0.0
30/06:00pm 10.1 7.6 8.2 88 0.9 NE 11 19 6 10 1019.7 1020.0 0.0
30/05:30pm 10.3 7.4 8.2 87 1.0 NE 13 20 7 11 1020.0 1020.3 0.0
30/05:00pm 10.5 8.0 8.3 86 1.1 NNE 11 19 6 10 1020.0 1020.3 0.0
30/04:30pm 10.6 8.1 8.4 86 1.1 NNE 11 15 6 8 1020.1 1020.4 0.0
30/04:00pm 10.9 8.0 8.1 83 1.4 NNE 13 20 7 11 1020.0 1020.3 0.0
30/03:30pm 10.9 7.7 8.5 85 1.2 N 15 20 8 11 1020.2 1020.5 0.0
30/03:00pm 10.9 7.7 8.3 84 1.3 N 15 19 8 10 1020.6 1020.9 0.0
30/02:30pm 11.0 8.6 8.6 85 1.2 N 11 15 6 8 1021.0 1021.3 0.0
30/02:00pm 11.0 8.5 8.2 83 1.4 N 11 15 6 8 1021.4 1021.7 0.0
30/01:30pm 11.1 8.7 8.5 84 1.3 N 11 17 6 9 1022.0 1022.3 0.0
30/01:00pm 11.2 8.3 8.1 81 1.5 N 13 20 7 11 1022.0 1022.3 0.0
30/12:30pm 11.4 8.2 8.3 81 1.5 N 15 20 8 11 1022.2 1022.5 0.0
30/12:00pm 11.4 8.9 8.3 81 1.5 N 11 15 6 8 1022.6 1022.9 0.0
30/11:30am 11.3 8.8 8.0 80 1.6 NNE 11 17 6 9 1023.3 1023.5 0.0
30/11:00am 11.1 8.5 7.6 79 1.7 N 11 19 6 10 1023.5 1023.7 0.0
30/10:30am 12.1 10.6 9.3 83 1.4 N 7 15 4 8 1023.8 1024.0 0.0
30/10:00am 10.0 7.7 9.1 94 0.4 N 11 15 6 8 1024.1 1024.3 0.0
30/09:30am 9.9 8.1 9.4 97 0.3 N 9 13 5 7 1024.2 1024.4 0.0
30/09:00am 9.3 7.3 8.8 97 0.2 N 9 13 5 7 1024.2 1024.4 0.2
30/08:30am 9.1 7.5 8.8 98 0.1 NNE 7 9 4 5 1023.9 1024.1 0.2
30/08:00am 8.9 7.5 8.8 99 0.0 NNE 6 7 3 4 1024.0 1024.2 0.2
30/07:30am 8.9 7.5 8.8 99 0.0 NNW 6 6 3 3 1024.0 1024.2 0.2
30/07:00am 8.8 8.5 8.7 99 0.0 CALM 0 0 0 0 1023.9 1024.1 0.0
30/06:30am 8.8 8.1 8.5 98 0.1 NNW 2 4 1 2 1023.6 1023.8 0.0
30/06:00am 8.9 7.8 8.5 97 0.2 NNW 4 4 2 2 1023.6 1023.8 0.0
30/05:30am 9.0 7.9 8.4 96 0.3 NNW 4 6 2 3 1023.3 1023.5 0.0
30/05:00am 9.1 8.4 8.6 97 0.2 NW 2 4 1 2 1023.2 1023.4 0.0
30/04:30am 8.9 7.9 8.8 99 0.0 NNW 4 6 2 3 1022.9 1023.2 0.0
30/04:00am 8.4 8.0 8.3 99 0.0 CALM 0 0 0 0 1023.2 1023.4 0.0
30/03:30am 7.5 6.8 6.9 96 0.3 CALM 0 0 0 0 1023.3 1023.5 0.0
30/03:00am 8.2 7.2 7.3 94 0.4 NW 2 4 1 2 1023.2 1023.4 0.0
30/02:30am 9.4 7.8 8.2 92 0.6 NW 6 7 3 4 1023.3 1023.5 0.0
30/02:00am 9.9 8.2 8.2 89 0.8 NW 7 11 4 6 1023.5 1023.7 0.0
30/01:30am 10.0 8.2 8.1 88 0.9 NW 7 9 4 5 1023.6 1023.8 0.0
30/01:00am 10.0 8.4 8.1 88 0.9 NW 6 7 3 4 1023.6 1023.8 0.0
30/12:30am 10.1 8.3 8.0 87 1.0 NW 7 11 4 6 1023.6 1023.8 0.0
30/12:00am 10.0 7.9 8.1 88 0.9 NW 9 13 5 7 1023.7 1023.9 0.0
 
Date/Time
EST
Temp
°C
App
Temp
°C
Dew
Point
°C
Rel
Hum
%
Delta-T
°C
Wind Press
QNH
hPa
Press
MSL
hPa
Rain since
9am
mm
Dir  Spd
km/h
Gust
km/h
Spd
kts
Gust
kts
29/11:30pm 9.9 8.4 8.3 90 0.8 NW 6 9 3 5 1024.0 1024.2 0.0
29/11:00pm 9.9 8.2 8.3 90 0.8 NNW 7 9 4 5 1023.9 1024.1 0.0
29/10:30pm 10.1 8.4 8.4 89 0.8 NW 7 11 4 6 1023.9 1024.1 0.0
29/10:00pm 10.1 8.4 8.4 89 0.8 NW 7 9 4 5 1024.0 1024.2 0.0
29/09:30pm 9.9 8.3 8.2 89 0.8 NW 6 7 3 4 1023.9 1024.1 0.0
29/09:00pm 10.2 8.1 8.1 87 1.0 WNW 9 13 5 7 1023.8 1024.0 0.0
29/08:30pm 10.3 8.7 8.2 87 1.0 NW 6 7 3 4 1023.9 1024.1 0.0
29/08:00pm 10.4 8.7 8.2 86 1.1 WNW 7 9 4 5 1023.7 1023.9 0.0
29/07:30pm 10.4 8.8 8.0 85 1.2 NW 6 9 3 5 1023.1 1023.3 0.0
29/07:00pm 10.4 8.8 8.0 85 1.2 NW 6 9 3 5 1022.9 1023.2 0.0
29/06:30pm 10.6 9.0 8.0 84 1.3 WNW 6 9 3 5 1023.3 1023.5 0.0
29/06:00pm 10.8 9.0 7.9 82 1.4 WNW 7 11 4 6 1023.1 1023.3 0.0
29/05:30pm 10.8 8.2 7.7 81 1.5 NW 11 17 6 9 1022.7 1023.0 0.0
29/05:00pm 10.9 8.7 7.8 81 1.5 NW 9 15 5 8 1022.2 1022.5 0.0
29/04:30pm 11.1 7.7 7.8 80 1.6 WNW 15 22 8 12 1022.5 1022.8 0.0
29/04:00pm 11.5 8.4 7.4 76 2.0 NW 13 20 7 11 1022.3 1022.6 0.0
29/03:30pm 11.6 8.2 7.5 76 2.0 WNW 15 20 8 11 1022.4 1022.7 0.0
29/03:00pm 12.0 9.0 7.9 76 2.0 NW 13 19 7 10 1022.3 1022.6 0.0
29/02:30pm 11.8 8.0 7.5 75 2.1 NNW 17 22 9 12 1022.3 1022.6 0.0
29/02:00pm 11.8 8.3 7.1 73 2.3 NW 15 22 8 12 1022.4 1022.7 0.0
29/01:30pm 11.7 8.1 6.8 72 2.3 NW 15 22 8 12 1022.9 1023.2 0.0
29/01:00pm 11.8 8.6 6.9 72 2.3 NW 13 22 7 12 1023.3 1023.5 0.0
29/12:30pm 11.7 8.2 7.0 73 2.3 WNW 15 24 8 13 1023.9 1024.1 0.0
29/12:00pm 11.4 7.9 7.1 75 2.1 NW 15 24 8 13 1024.3 1024.5 0.0
29/11:30am 11.1 7.8 6.6 74 2.1 NW 13 20 7 11 1024.6 1024.8 0.0
29/11:00am 10.9 8.4 6.5 74 2.1 NW 9 17 5 9 1025.1 1025.4 0.0
29/10:30am 10.6 7.7 6.6 76 1.9 NW 11 13 6 7 1025.5 1025.8 0.0
29/10:00am 10.4 8.4 6.9 79 1.7 NNW 7 11 4 6 1025.5 1025.8 0.0
29/09:30am 10.4 7.5 6.5 77 1.8 NW 11 19 6 10 1025.4 1025.7 0.0
29/09:00am 10.1 8.1 7.2 82 1.4 NW 7 9 4 5 1025.3 1025.6 0.6
29/08:30am 9.7 7.6 6.8 82 1.4 NW 7 11 4 6 1025.4 1025.7 0.6
29/08:00am 9.5 7.1 6.8 83 1.3 WNW 9 15 5 8 1025.6 1025.9 0.6
29/07:30am 9.3 6.8 6.7 84 1.2 NW 9 11 5 6 1025.2 1025.5 0.6
29/07:00am 9.3 7.3 6.9 85 1.1 NW 7 11 4 6 1025.2 1025.5 0.6
29/06:30am 9.3 7.3 7.1 86 1.0 NW 7 11 4 6 1024.9 1025.1 0.6
29/06:00am 9.4 7.0 7.2 86 1.0 NW 9 15 5 8 1024.7 1024.9 0.6
29/05:30am 9.4 6.8 7.8 90 0.8 NW 11 17 6 9 1024.5 1024.7 0.6
29/05:00am 9.3 7.5 8.1 92 0.6 NW 7 13 4 7 1024.5 1024.7 0.6
29/04:30am 9.2 7.5 8.3 94 0.4 NW 7 11 4 6 1024.5 1024.7 0.6
29/04:00am 9.2 7.6 8.6 96 0.3 NW 7 11 4 6 1024.4 1024.6 0.6
29/03:30am 9.2 7.2 8.6 96 0.3 NNW 9 13 5 7 1024.4 1024.6 0.6
29/03:00am 9.0 7.4 8.9 99 0.0 NNW 7 11 4 6 1024.7 1024.9 0.6
29/02:30am 9.0 7.4 8.9 99 0.0 NNW 7 9 4 5 1024.7 1024.9 0.6
29/02:00am 9.0 7.1 8.9 99 0.0 NNW 9 11 5 6 1024.6 1024.8 0.6
29/01:30am 9.0 7.4 8.9 99 0.0 NNW 7 9 4 5 1024.8 1025.0 0.6
29/01:00am 8.9 6.5 8.8 99 0.0 NNW 11 13 6 7 1024.9 1025.1 0.6
29/12:30am 9.0 7.1 8.9 99 0.0 NNW 9 13 5 7 1025.1 1025.4 0.6
29/12:00am 9.0 7.4 8.9 99 0.0 NNW 7 9 4 5 1025.4 1025.7 0.6
 
Date/Time
EST
Temp
°C
App
Temp
°C
Dew
Point
°C
Rel
Hum
%
Delta-T
°C
Wind Press
QNH
hPa
Press
MSL
hPa
Rain since
9am
mm
Dir  Spd
km/h
Gust
km/h
Spd
kts
Gust
kts
28/11:30pm 9.0 7.1 8.9 99 0.0 NNW 9 13 5 7 1025.5 1025.8 0.6
28/11:00pm 9.0 7.4 8.7 98 0.1 N 7 11 4 6 1025.5 1025.8 0.6
28/10:30pm 9.0 7.0 8.6 97 0.2 N 9 11 5 6 1025.7 1026.0 0.6
28/10:00pm 9.1 7.1 8.6 97 0.2 N 9 13 5 7 1025.9 1026.2 0.6
28/09:30pm 9.0 7.4 8.6 97 0.2 N 7 9 4 5 1026.2 1026.5 0.6
28/09:00pm 8.8 7.3 8.4 97 0.2 NNW 6 9 3 5 1026.3 1026.6 0.6
28/08:30pm 8.8 7.7 8.4 97 0.2 W 4 6 2 3 1026.5 1026.8 0.6
28/08:00pm 8.8 7.6 7.9 94 0.4 WNW 4 6 2 3 1026.5 1026.8 0.6
28/07:30pm 8.5 6.9 7.9 96 0.3 WNW 6 6 3 3 1026.5 1026.8 0.6
28/07:00pm 8.2 6.2 7.3 94 0.4 W 7 7 4 4 1026.3 1026.6 0.6
28/06:30pm 9.7 8.1 8.6 93 0.5 WNW 7 11 4 6 1026.1 1026.4 0.6
28/06:00pm 9.7 8.2 8.6 93 0.5 W 6 7 3 4 1026.0 1026.3 0.6
28/05:30pm 10.1 8.1 8.7 91 0.7 W 9 13 5 7 1025.8 1026.1 0.6
28/05:00pm 10.9 8.0 8.3 84 1.3 WNW 13 22 7 12 1025.7 1026.0 0.6
28/04:30pm 11.2 8.7 8.1 81 1.5 W 11 15 6 8 1025.6 1025.9 0.6
28/04:00pm 11.8 8.8 7.7 76 2.0 WNW 13 19 7 10 1025.5 1025.8 0.6
28/03:30pm 11.8 8.6 8.6 81 1.6 W 15 20 8 11 1025.6 1025.9 0.6
28/03:00pm 11.2 8.3 9.6 90 0.8 W 15 24 8 13 1025.4 1025.7 0.6
28/02:30pm 10.9 9.2 9.8 93 0.6 W 9 13 5 7 1025.4 1025.7 0.6
28/02:00pm 10.1 7.1 9.2 94 0.4 W 15 22 8 12 1025.8 1026.1 0.4
28/01:30pm 11.0 9.1 8.9 87 1.0 W 9 15 5 8 1025.8 1026.1 0.2
28/01:00pm 10.4 8.1 9.0 91 0.7 W 11 17 6 9 1026.1 1026.4 0.2
28/12:30pm 10.9 8.1 8.7 86 1.1 W 13 19 7 10 1026.4 1026.7 0.0
28/12:00pm 10.8 7.9 8.2 84 1.3 WSW 13 20 7 11 1026.8 1027.1 0.0

Other Formats:

Comma delimited format used in spreadsheet applications
http://www.bom.gov.au/fwo/IDV60801/IDV60801.94862.axf

JavaScript Object Notation format (JSON) in row-major order
http://www.bom.gov.au/fwo/IDV60801/IDV60801.94862.json